Darstellungsparameter: Aktuell verwendete Einstellungen:
Skalierung der Graphiken ... ?
xyx+y,   Skalierungsfaktor:      Skalierung: Modus: x, Faktor: 1
Darstellungszeitraum ... ?
Vom - - bis: - -   Zeitraum: 01.06.2022 - 01.06.2022
Min/Max/Avg-Anzeige ... ?
Zeige MMA aktuell
Zeige MMA Monat
Zeige MMA alles
Zeige --A aktuell
Zeige --A Monat
Zeige --A alles
Keine MMA-Anzeige
MMA:
Keine MMA-Graphiken
MMA-Basis: 01.06.2022 - 01.06.2022
Quicknavigation für Darstellung... ?
Tage:      1T, 2T, 3T, 5T -1T -2T -3T -5T +1T +2T +3T +5T
Wochen: 1W, 2W, 3W -1W -2W -3W +1W +2W +3W
Monate: 1M, 3M, 6M -1M -3M -6M +1M +3M +6M
Jahre:    1J, 3J, 5J, 10J -1J -3J -5J -10J +1J +3J +5J +10J
Nutze für die Darstellung ... ?
Originaldaten oder Mittelwerte auf ...
Stundenbasis Tagesbasis Wochenbasis
Monatsbasis Jahresbasis      Datenbasis: Original-Daten
Darstellen als:
Statistik (Auto) Statistik J:M      Darstellung:
Zur Graphik,    zurück zur Übersicht aller Sensoren.
 
Tabellarische Datenbersicht: ?
 
Sensor: Nr:Datum:Temp:Feuchte:Taupunkt:
Aussen-T/F 1 01-06-2022 00:00:00 11.9 C 81 % 8.75 C
2 01-06-2022 00:05:00 11.9 C 81 % 8.75 C
3 01-06-2022 00:10:00 11.9 C 81 % 8.75 C
4 01-06-2022 00:15:00 11.9 C 81 % 8.75 C
5 01-06-2022 00:20:00 11.9 C 81 % 8.75 C
6 01-06-2022 00:25:00 12 C 82 % 9.03 C
7 01-06-2022 00:30:00 12.1 C 82 % 9.12 C
8 01-06-2022 00:35:00 12.2 C 84 % 9.58 C
9 01-06-2022 00:40:00 12.3 C 85 % 9.85 C
10 01-06-2022 00:45:00 12.3 C 85 % 9.85 C
11 01-06-2022 00:50:00 12.3 C 85 % 9.85 C
12 01-06-2022 00:55:00 12.2 C 86 % 9.93 C
13 01-06-2022 01:00:00 12.2 C 86 % 9.93 C
14 01-06-2022 01:05:00 12 C 86 % 9.73 C
15 01-06-2022 01:10:00 11.9 C 86 % 9.64 C
16 01-06-2022 01:15:00 11.8 C 86 % 9.54 C
17 01-06-2022 01:20:00 11.7 C 86 % 9.44 C
18 01-06-2022 01:25:00 11.6 C 86 % 9.34 C
19 01-06-2022 01:30:00 11.5 C 85 % 9.07 C
20 01-06-2022 01:35:00 11.3 C 85 % 8.87 C
21 01-06-2022 01:40:00 11.2 C 85 % 8.77 C
22 01-06-2022 01:45:00 11.1 C 85 % 8.68 C
23 01-06-2022 01:50:00 11 C 86 % 8.75 C
24 01-06-2022 01:55:00 10.9 C 86 % 8.65 C
25 01-06-2022 02:00:00 10.8 C 86 % 8.56 C
Sensor: Nr:Datum:Temp:Feuchte:Taupunkt:
Aussen-T/F 26 01-06-2022 02:05:00 10.8 C 86 % 8.56 C
27 01-06-2022 02:10:00 10.8 C 87 % 8.73 C
28 01-06-2022 02:15:00 10.8 C 87 % 8.73 C
29 01-06-2022 02:20:00 10.8 C 88 % 8.89 C
30 01-06-2022 02:25:00 10.9 C 88 % 8.99 C
31 01-06-2022 02:30:00 10.9 C 88 % 8.99 C
32 01-06-2022 02:35:00 10.9 C 88 % 8.99 C
33 01-06-2022 02:40:00 10.9 C 88 % 8.99 C
34 01-06-2022 02:45:00 11 C 88 % 9.09 C
35 01-06-2022 02:50:00 11 C 88 % 9.09 C
36 01-06-2022 02:55:00 11 C 88 % 9.09 C
37 01-06-2022 03:00:00 11 C 89 % 9.26 C
38 01-06-2022 03:05:00 11 C 89 % 9.26 C
39 01-06-2022 03:10:00 11 C 89 % 9.26 C
40 01-06-2022 03:15:00 10.9 C 89 % 9.16 C
41 01-06-2022 03:20:00 10.8 C 89 % 9.06 C
42 01-06-2022 03:25:00 10.8 C 89 % 9.06 C
43 01-06-2022 03:30:00 10.7 C 90 % 9.13 C
44 01-06-2022 03:35:00 10.7 C 90 % 9.13 C
45 01-06-2022 03:40:00 10.8 C 90 % 9.23 C
46 01-06-2022 03:45:00 10.8 C 90 % 9.23 C
47 01-06-2022 03:50:00 10.7 C 90 % 9.13 C
48 01-06-2022 03:55:00 10.6 C 90 % 9.03 C
49 01-06-2022 04:00:00 10.4 C 90 % 8.83 C
50 01-06-2022 04:05:00 10.3 C 90 % 8.73 C
Sensor: Nr:Datum:Temp:Feuchte:Taupunkt:
Aussen-T/F 51 01-06-2022 04:10:00 10.1 C 90 % 8.54 C
52 01-06-2022 04:15:00 9.9 C 90 % 8.34 C
53 01-06-2022 04:20:00 9.8 C 90 % 8.24 C
54 01-06-2022 04:25:00 9.7 C 90 % 8.14 C
55 01-06-2022 04:30:00 9.7 C 91 % 8.3 C
56 01-06-2022 04:35:00 9.7 C 91 % 8.3 C
57 01-06-2022 04:40:00 9.7 C 91 % 8.3 C
58 01-06-2022 04:45:00 9.6 C 91 % 8.21 C
59 01-06-2022 04:50:00 9.4 C 91 % 8.01 C
60 01-06-2022 04:55:00 9.3 C 91 % 7.91 C
61 01-06-2022 05:00:00 9.3 C 91 % 7.91 C
62 01-06-2022 05:05:00 9.2 C 92 % 7.97 C
63 01-06-2022 05:10:00 9.2 C 92 % 7.97 C
64 01-06-2022 05:15:00 9.2 C 92 % 7.97 C
65 01-06-2022 05:20:00 9.2 C 92 % 7.97 C
66 01-06-2022 05:25:00 9.2 C 92 % 7.97 C
67 01-06-2022 05:30:00 9.2 C 93 % 8.13 C
68 01-06-2022 05:35:00 9.2 C 93 % 8.13 C
69 01-06-2022 05:40:00 9.3 C 93 % 8.23 C
70 01-06-2022 05:45:00 9.3 C 93 % 8.23 C
71 01-06-2022 05:50:00 9.3 C 93 % 8.23 C
72 01-06-2022 05:55:00 9.3 C 93 % 8.23 C
73 01-06-2022 06:00:00 9.3 C 93 % 8.23 C
74 01-06-2022 06:05:00 9.3 C 93 % 8.23 C
75 01-06-2022 06:10:00 9.3 C 93 % 8.23 C
Sensor: Nr:Datum:Temp:Feuchte:Taupunkt:
Aussen-T/F 76 01-06-2022 06:15:00 9.3 C 93 % 8.23 C
77 01-06-2022 06:20:00 9.4 C 93 % 8.33 C
78 01-06-2022 06:25:00 9.4 C 93 % 8.33 C
79 01-06-2022 06:30:00 9.4 C 93 % 8.33 C
80 01-06-2022 06:35:00 9.6 C 93 % 8.53 C
81 01-06-2022 06:40:00 9.6 C 93 % 8.53 C
82 01-06-2022 06:45:00 9.7 C 94 % 8.78 C
83 01-06-2022 06:50:00 9.8 C 94 % 8.88 C
84 01-06-2022 06:55:00 9.9 C 94 % 8.98 C
85 01-06-2022 07:00:00 10 C 94 % 9.08 C
86 01-06-2022 07:05:00 10.1 C 94 % 9.18 C
87 01-06-2022 07:10:00 10.2 C 94 % 9.28 C
88 01-06-2022 07:15:00 10.3 C 94 % 9.38 C
89 01-06-2022 07:20:00 10.4 C 94 % 9.48 C
90 01-06-2022 07:25:00 10.6 C 94 % 9.68 C
91 01-06-2022 07:30:00 10.7 C 93 % 9.62 C
92 01-06-2022 07:35:00 10.8 C 93 % 9.71 C
93 01-06-2022 07:40:00 10.9 C 93 % 9.81 C
94 01-06-2022 07:45:00 11 C 92 % 9.75 C
95 01-06-2022 07:50:00 10.9 C 91 % 9.49 C
96 01-06-2022 07:55:00 11 C 89 % 9.26 C
97 01-06-2022 08:00:00 11.1 C 89 % 9.36 C
98 01-06-2022 08:05:00 11.2 C 89 % 9.46 C
99 01-06-2022 08:10:00 11.4 C 86 % 9.14 C
100 01-06-2022 08:15:00 11.6 C 85 % 9.17 C
Sensor: Nr:Datum:Temp:Feuchte:Taupunkt:
Aussen-T/F 101 01-06-2022 08:20:00 11.8 C 85 % 9.36 C
102 01-06-2022 08:25:00 12 C 84 % 9.38 C
103 01-06-2022 08:30:00 12.3 C 83 % 9.5 C
104 01-06-2022 08:35:00 12.6 C 81 % 9.43 C
105 01-06-2022 08:40:00 12.8 C 78 % 9.06 C
106 01-06-2022 08:45:00 12.9 C 79 % 9.35 C
107 01-06-2022 08:50:00 13.1 C 78 % 9.36 C
108 01-06-2022 08:55:00 13.3 C 78 % 9.55 C
109 01-06-2022 09:00:00 13.4 C 77 % 9.45 C
110 01-06-2022 09:05:00 13.6 C 76 % 9.45 C
111 01-06-2022 09:10:00 13.6 C 73 % 8.86 C
112 01-06-2022 09:15:00 13.8 C 73 % 9.05 C
113 01-06-2022 09:20:00 13.9 C 73 % 9.15 C
114 01-06-2022 09:25:00 14.1 C 71 % 8.93 C
115 01-06-2022 09:30:00 14.2 C 71 % 9.02 C
116 01-06-2022 09:35:00 14.2 C 69 % 8.6 C
117 01-06-2022 09:40:00 14.3 C 69 % 8.7 C
118 01-06-2022 09:45:00 14.4 C 68 % 8.58 C
119 01-06-2022 09:50:00 14.5 C 69 % 8.89 C
120 01-06-2022 09:55:00 14.7 C 69 % 9.08 C
121 01-06-2022 10:00:00 14.7 C 69 % 9.08 C
122 01-06-2022 10:05:00 14.7 C 68 % 8.86 C
123 01-06-2022 10:10:00 14.8 C 67 % 8.74 C
124 01-06-2022 10:15:00 14.9 C 68 % 9.05 C
125 01-06-2022 10:20:00 15.2 C 67 % 9.12 C
Sensor: Nr:Datum:Temp:Feuchte:Taupunkt:
Aussen-T/F 126 01-06-2022 10:25:00 15.6 C 64 % 8.82 C
127 01-06-2022 10:30:00 15.8 C 63 % 8.78 C
128 01-06-2022 10:35:00 15.9 C 64 % 9.11 C
129 01-06-2022 10:40:00 16.2 C 65 % 9.62 C
130 01-06-2022 10:45:00 16.4 C 62 % 9.11 C
131 01-06-2022 10:50:00 16.6 C 60 % 8.81 C
132 01-06-2022 10:55:00 16.7 C 59 % 8.66 C
133 01-06-2022 11:00:00 16.9 C 58 % 8.59 C
134 01-06-2022 11:05:00 17.2 C 57 % 8.62 C
135 01-06-2022 11:10:00 17.4 C 52 % 7.45 C
136 01-06-2022 11:15:00 17.6 C 56 % 8.73 C
137 01-06-2022 11:20:00 17.9 C 55 % 8.74 C
138 01-06-2022 11:25:00 18 C 55 % 8.83 C
139 01-06-2022 11:30:00 18.2 C 54 % 8.75 C
140 01-06-2022 11:35:00 18.3 C 52 % 8.28 C
141 01-06-2022 11:40:00 18.6 C 52 % 8.56 C
142 01-06-2022 11:45:00 18.8 C 49 % 7.87 C
143 01-06-2022 11:50:00 19.1 C 49 % 8.15 C
144 01-06-2022 11:55:00 19.3 C 47 % 7.72 C
145 01-06-2022 12:00:00 19.3 C 47 % 7.72 C
146 01-06-2022 12:05:00 19.5 C 48 % 8.21 C
147 01-06-2022 12:10:00 19.4 C 48 % 8.12 C
148 01-06-2022 12:15:00 19.7 C 48 % 8.39 C
149 01-06-2022 12:20:00 20.1 C 47 % 8.45 C
150 01-06-2022 12:25:00 20.1 C 45 % 7.81 C
Sensor: Nr:Datum:Temp:Feuchte:Taupunkt:
Aussen-T/F 151 01-06-2022 12:30:00 20.2 C 43 % 7.23 C
152 01-06-2022 12:35:00 20.4 C 47 % 8.72 C
153 01-06-2022 12:40:00 20.6 C 47 % 8.9 C
154 01-06-2022 12:45:00 20.6 C 47 % 8.9 C
155 01-06-2022 12:50:00 20.7 C 43 % 7.68 C
156 01-06-2022 12:55:00 20.8 C 41 % 7.08 C
157 01-06-2022 13:00:00 21.1 C 42 % 7.7 C
158 01-06-2022 13:05:00 21.2 C 40 % 7.08 C
159 01-06-2022 13:10:00 21.1 C 42 % 7.7 C
160 01-06-2022 13:15:00 21.4 C 44 % 8.65 C
161 01-06-2022 13:20:00 21.4 C 40 % 7.25 C
162 01-06-2022 13:25:00 20.9 C 40 % 6.81 C
163 01-06-2022 13:30:00 20.4 C 41 % 6.72 C
164 01-06-2022 13:35:00 20.2 C 41 % 6.54 C
165 01-06-2022 13:40:00 20.1 C 42 % 6.8 C
166 01-06-2022 13:45:00 20.2 C 45 % 7.9 C
167 01-06-2022 13:50:00 20.4 C 43 % 7.41 C
168 01-06-2022 13:55:00 20.8 C 46 % 8.77 C
169 01-06-2022 14:00:00 21.4 C 43 % 8.31 C
170 01-06-2022 14:05:00 21.6 C 42 % 8.15 C
171 01-06-2022 14:10:00 21 C 43 % 7.95 C
172 01-06-2022 14:15:00 20.6 C 45 % 8.26 C
173 01-06-2022 14:20:00 20.4 C 46 % 8.4 C
174 01-06-2022 14:25:00 20.3 C 47 % 8.63 C
175 01-06-2022 14:30:00 20.2 C 47 % 8.54 C
Sensor: Nr:Datum:Temp:Feuchte:Taupunkt:
Aussen-T/F 176 01-06-2022 14:35:00 20.1 C 46 % 8.13 C
177 01-06-2022 14:40:00 19.9 C 48 % 8.57 C
178 01-06-2022 14:45:00 19.9 C 47 % 8.26 C
179 01-06-2022 14:50:00 20.1 C 48 % 8.76 C
180 01-06-2022 14:55:00 20.2 C 48 % 8.85 C
181 01-06-2022 15:00:00 20.1 C 47 % 8.45 C
182 01-06-2022 15:05:00 20 C 46 % 8.04 C
183 01-06-2022 15:10:00 19.8 C 47 % 8.17 C
184 01-06-2022 15:15:00 19.7 C 48 % 8.39 C
185 01-06-2022 15:20:00 20.3 C 51 % 9.84 C
186 01-06-2022 15:25:00 21 C 47 % 9.27 C
187 01-06-2022 15:30:00 21.1 C 47 % 9.36 C
188 01-06-2022 15:35:00 20.8 C 46 % 8.77 C
189 01-06-2022 15:40:00 20.4 C 47 % 8.72 C
190 01-06-2022 15:45:00 20.2 C 47 % 8.54 C
191 01-06-2022 15:50:00 19.9 C 49 % 8.88 C
192 01-06-2022 15:55:00 19.8 C 50 % 9.09 C
193 01-06-2022 16:00:00 19.7 C 49 % 8.7 C
194 01-06-2022 16:05:00 19.8 C 49 % 8.79 C
195 01-06-2022 16:10:00 19.9 C 48 % 8.57 C
196 01-06-2022 16:15:00 19.8 C 48 % 8.48 C
197 01-06-2022 16:20:00 19.7 C 49 % 8.7 C
198 01-06-2022 16:25:00 19.6 C 50 % 8.9 C
199 01-06-2022 16:30:00 19.6 C 51 % 9.2 C
200 01-06-2022 16:35:00 19.8 C 49 % 8.79 C
Sensor: Nr:Datum:Temp:Feuchte:Taupunkt:
Aussen-T/F 201 01-06-2022 16:40:00 19.9 C 49 % 8.88 C
202 01-06-2022 16:45:00 19.8 C 49 % 8.79 C
203 01-06-2022 16:50:00 19.7 C 49 % 8.7 C
204 01-06-2022 16:55:00 19.6 C 49 % 8.6 C
205 01-06-2022 17:00:00 19.5 C 49 % 8.51 C
206 01-06-2022 17:05:00 19.4 C 49 % 8.42 C
207 01-06-2022 17:10:00 19.4 C 49 % 8.42 C
208 01-06-2022 17:15:00 19.4 C 50 % 8.72 C
209 01-06-2022 17:20:00 19.3 C 48 % 8.03 C
210 01-06-2022 17:25:00 19.2 C 49 % 8.24 C
211 01-06-2022 17:30:00 19.1 C 49 % 8.15 C
212 01-06-2022 17:35:00 19.1 C 50 % 8.44 C
213 01-06-2022 17:40:00 19.1 C 50 % 8.44 C
214 01-06-2022 17:45:00 19.1 C 50 % 8.44 C
215 01-06-2022 17:50:00 19 C 50 % 8.35 C
216 01-06-2022 17:55:00 18.9 C 51 % 8.55 C
217 01-06-2022 18:00:00 18.8 C 51 % 8.46 C
218 01-06-2022 18:05:00 18.8 C 52 % 8.75 C
219 01-06-2022 18:10:00 18.9 C 51 % 8.55 C
220 01-06-2022 18:15:00 18.9 C 50 % 8.26 C
221 01-06-2022 18:20:00 18.8 C 52 % 8.75 C
222 01-06-2022 18:25:00 18.7 C 52 % 8.65 C
223 01-06-2022 18:30:00 18.7 C 52 % 8.65 C
224 01-06-2022 18:35:00 18.5 C 52 % 8.47 C
225 01-06-2022 18:40:00 18.3 C 53 % 8.56 C
Sensor: Nr:Datum:Temp:Feuchte:Taupunkt:
Aussen-T/F 226 01-06-2022 18:45:00 18.2 C 53 % 8.47 C
227 01-06-2022 18:50:00 18.2 C 54 % 8.75 C
228 01-06-2022 18:55:00 18.2 C 56 % 9.29 C
229 01-06-2022 19:00:00 18.1 C 56 % 9.19 C
230 01-06-2022 19:05:00 18 C 57 % 9.36 C
231 01-06-2022 19:10:00 17.8 C 57 % 9.18 C
232 01-06-2022 19:15:00 17.7 C 58 % 9.34 C
233 01-06-2022 19:20:00 17.8 C 57 % 9.18 C
234 01-06-2022 19:25:00 17.8 C 58 % 9.43 C
235 01-06-2022 19:30:00 17.9 C 58 % 9.53 C
236 01-06-2022 19:35:00 17.8 C 58 % 9.43 C
237 01-06-2022 19:40:00 17.7 C 59 % 9.59 C
238 01-06-2022 19:45:00 17.4 C 60 % 9.56 C
239 01-06-2022 19:50:00 17.3 C 60 % 9.47 C
240 01-06-2022 19:55:00 17.1 C 61 % 9.53 C
241 01-06-2022 20:00:00 16.9 C 61 % 9.34 C
242 01-06-2022 20:05:00 16.8 C 61 % 9.24 C
243 01-06-2022 20:10:00 16.6 C 62 % 9.3 C
244 01-06-2022 20:15:00 16.5 C 62 % 9.2 C
245 01-06-2022 20:20:00 16.3 C 62 % 9.01 C
246 01-06-2022 20:25:00 16.2 C 63 % 9.16 C
247 01-06-2022 20:30:00 16.1 C 63 % 9.06 C
248 01-06-2022 20:35:00 16.1 C 62 % 8.82 C
249 01-06-2022 20:40:00 16.1 C 63 % 9.06 C
250 01-06-2022 20:45:00 16.1 C 63 % 9.06 C
Sensor: Nr:Datum:Temp:Feuchte:Taupunkt:
Aussen-T/F 251 01-06-2022 20:50:00 16.1 C 63 % 9.06 C
252 01-06-2022 20:55:00 16.1 C 62 % 8.82 C
253 01-06-2022 21:00:00 16 C 62 % 8.73 C
254 01-06-2022 21:05:00 15.9 C 62 % 8.64 C
255 01-06-2022 21:10:00 15.8 C 62 % 8.54 C
256 01-06-2022 21:15:00 15.7 C 64 % 8.92 C
257 01-06-2022 21:20:00 15.7 C 64 % 8.92 C
258 01-06-2022 21:25:00 15.6 C 64 % 8.82 C
259 01-06-2022 21:30:00 15.5 C 65 % 8.96 C
260 01-06-2022 21:35:00 15.4 C 66 % 9.09 C
261 01-06-2022 21:40:00 15.3 C 67 % 9.21 C
262 01-06-2022 21:45:00 15.2 C 68 % 9.34 C
263 01-06-2022 21:50:00 14.9 C 68 % 9.05 C
264 01-06-2022 21:55:00 14.8 C 69 % 9.17 C
265 01-06-2022 22:00:00 14.7 C 69 % 9.08 C
266 01-06-2022 22:05:00 14.5 C 70 % 9.1 C
267 01-06-2022 22:10:00 14.3 C 70 % 8.91 C
268 01-06-2022 22:15:00 14.1 C 70 % 8.72 C
269 01-06-2022 22:20:00 13.9 C 71 % 8.73 C
270 01-06-2022 22:25:00 13.7 C 71 % 8.54 C
271 01-06-2022 22:30:00 13.5 C 71 % 8.35 C
272 01-06-2022 22:35:00 13.3 C 72 % 8.36 C
273 01-06-2022 22:40:00 13 C 72 % 8.08 C
274 01-06-2022 22:45:00 12.7 C 73 % 7.99 C
275 01-06-2022 22:50:00 12.4 C 74 % 7.9 C
Sensor: Nr:Datum:Temp:Feuchte:Taupunkt:
Aussen-T/F 276 01-06-2022 22:55:00 12.2 C 75 % 7.91 C
277 01-06-2022 23:00:00 11.9 C 76 % 7.81 C
278 01-06-2022 23:05:00 11.7 C 77 % 7.81 C
279 01-06-2022 23:10:00 11.5 C 77 % 7.61 C
280 01-06-2022 23:15:00 11.4 C 78 % 7.71 C
281 01-06-2022 23:20:00 11.3 C 79 % 7.8 C
282 01-06-2022 23:25:00 11.2 C 79 % 7.7 C
283 01-06-2022 23:30:00 11.1 C 79 % 7.6 C
284 01-06-2022 23:35:00 11.1 C 80 % 7.79 C
285 01-06-2022 23:40:00 10.9 C 80 % 7.59 C
286 01-06-2022 23:45:00 10.9 C 80 % 7.59 C
287 01-06-2022 23:50:00 10.9 C 80 % 7.59 C
288 01-06-2022 23:55:00 10.8 C 80 % 7.49 C

Legende:
   Min
   Max


Maximal/Minimal-Werte vom 01.06.2022 - 01.06.2022

Sensor Min Max Avg
Temp
(Aussen-T/F)
9.2 °C
01-06-2022  05:05:00
21.6 °C
01-06-2022  14:05:00
14.91 °C
Feuchte
(Aussen-T/F)
40 %
01-06-2022  13:05:00
94 %
01-06-2022  06:45:00
68.96 %
Taupunkt
(Aussen-T/F)
6.54 C
01-06-2022  13:35:00
9.93 C
01-06-2022  00:55:00
8.66 C

Die Daten stammen von einer Davis Vantage Pro 2 Wetter-Station und werden unter Linux mit der Software wview2wettercgi und aufbereitet. Alle Angaben erfolgen ohne Gewähr für ihre Vollständigkeit oder Richtigkeit.
Kontakt: Rainer Krienke krienke@uni-koblenz.de . Meine Webseiten an der Uni Koblenz oder privat.
Version: $Revision: 0.78 $